Flight Track Log - Related Links

Times and Time Zones

All times are in EDT time to prevent confusion due to time zone crossing. See the UAL341 flight status page for this flight to view local times or setup timezone preferences in your user account.

Time Position Orientation Groundspeed Altitude Reporting Facility
EDT Latitude Longitude Course Direction KTS MPH feet Rate Location/Type
Sat 11:08:21 AM 33.6500 -117.8833 140° Southeast 135 155 1,300  Level Southern California TRACON
Sat 11:09:15 AM 33.6167 -117.9000 203° Southwest 150 173 2,800 1,245 Climbing Southern California TRACON
Sat 11:10:07 AM 33.5831 -117.8964 175° South 154 177 3,500 1,263 Climbing Los Angeles Center
Sat 11:11:00 AM 33.5633 -117.4757 66° East  Level FlightAware Approximate
Sat 11:11:09 AM 33.5236 -117.8692 159° South 220 253 5,200  Level Los Angeles Center
Sat 11:12:00 AM 33.5418 -117.3255 103° East  Level FlightAware Approximate
Sat 11:12:11 AM 33.4825 -117.7961 124° Southeast 259 298 8,100  Level Los Angeles Center
Sat 11:13:00 AM 33.4708 -117.2040 140° Southeast  Level FlightAware Approximate
Sat 11:13:12 AM 33.4819 -117.7039 90° East 272 313 10,800  Level Los Angeles Center
Sat 11:14:14 AM 33.5231 -117.6089 63° Northeast 301 346 13,100 2,081 Climbing Los Angeles Center
Sat 11:15:16 AM 33.5683 -117.5114 61° Northeast 322 371 15,100 2,468 Climbing Los Angeles Center
Sat 11:16:18 AM 33.5692 -117.3703 90° East 363 418 18,200 2,341 Climbing Los Angeles Center
Sat 11:17:19 AM 33.5303 -117.2522 112° Southeast 376 433 19,900 1,707 Climbing Los Angeles Center
Sat 11:18:21 AM 33.4431 -117.1597 138° Southeast 400 460 21,700 1,694 Climbing Los Angeles Center
Sat 11:19:23 AM 33.3528 -117.0739 142° Southeast 410 472 23,400 1,548 Climbing Los Angeles Center
Sat 11:20:25 AM 33.2631 -116.9792 139° Southeast 425 489 24,900 1,415 Climbing Los Angeles Center
Sat 11:21:26 AM 33.1717 -116.8831 139° Southeast 436 502 26,300 1,268 Climbing Los Angeles Center
Sat 11:22:28 AM 33.0767 -116.7847 139° Southeast 445 512 27,500 1,210 Climbing Los Angeles Center
Sat 11:23:30 AM 32.9742 -116.6550 133° Southeast 452 520 28,800 1,403 Climbing Los Angeles Center
Sat 11:24:32 AM 32.9594 -116.5067 97° East 457 526 30,400 1,317 Climbing Los Angeles Center
Sat 11:25:33 AM 32.9622 -116.3597 89° East 454 522 31,500 1,024 Climbing Los Angeles Center
Sat 11:26:35 AM 32.9639 -116.1967 89° East 459 528 32,500 726 Climbing Los Angeles Center
Sat 11:27:37 AM 32.9650 -116.0456 89° East 457 526 33,000 244 Climbing Los Angeles Center
Sat 11:28:38 AM 32.9658 -115.8958 90° East 453 521 33,000  Level Los Angeles Center
Sat 11:29:40 AM 32.9675 -115.7439 89° East 458 527 33,000  Level Los Angeles Center
Sat 11:30:42 AM 32.9675 -115.5922 90° East 459 528 33,000  Level Los Angeles Center
Sat 11:31:43 AM 32.9694 -115.4403 89° East 459 528 33,000  Level Los Angeles Center
Sat 11:32:45 AM 32.9697 -115.2886 90° East 459 528 33,000  Level Los Angeles Center
Sat 11:33:47 AM 32.9689 -115.1061 90° East 461 531 33,000  Level Los Angeles Center
Sat 11:34:48 AM 32.9700 -114.9533 89° East 462 532 33,000  Level Los Angeles Center
Sat 11:35:50 AM 32.9703 -114.8011 90° East 462 532 33,000  Level Los Angeles Center
Sat 11:36:52 AM 32.9703 -114.6494 90° East 460 529 33,000  Level Los Angeles Center
Sat 11:37:53 AM 32.9692 -114.4964 90° East 462 532 33,000  Level Los Angeles Center
Sat 11:38:55 AM 32.9697 -114.3442 90° East 461 531 33,000  Level Los Angeles Center
Sat 11:39:35 AM 32.9733 -114.2308 88° East 460 529 33,000  Level Albuquerque Center
Sat 11:40:37 AM 32.9725 -114.0778 90° East 461 531 33,000  Level Albuquerque Center
Sat 11:41:38 AM 32.9719 -113.9272 90° East 458 527 33,000 -49 Level Albuquerque Center
Sat 11:42:40 AM 32.9700 -113.7744 91° East 459 528 32,900  Descending Albuquerque Center
Sat 11:43:43 AM 32.9686 -113.6228 91° East 459 528 33,000 49 Climbing Albuquerque Center
Sat 11:44:43 AM 32.9675 -113.4692 90° East 461 531 33,000  Level Albuquerque Center
Sat 11:45:45 AM 32.9664 -113.2853 90° East 461 531 33,000  Level Albuquerque Center
Sat 11:46:46 AM 32.9639 -113.1306 91° East 464 534 33,000  Level Albuquerque Center
Sat 11:47:48 AM 32.9622 -112.9758 91° East 465 535 33,000  Level Albuquerque Center
Sat 11:48:50 AM 32.9586 -112.8214 92° East 465 535 33,000  Level Albuquerque Center
Sat 11:49:51 AM 32.9553 -112.6658 91° East 465 535 33,000  Level Albuquerque Center
Sat 11:50:53 AM 32.9258 -112.5131 103° East 472 543 33,000  Level Albuquerque Center
Sat 11:51:54 AM 32.8978 -112.3592 102° East 473 544 33,000  Level Albuquerque Center
Sat 11:52:56 AM 32.8708 -112.2136 102° East 469 540 33,000  Level Albuquerque Center
Sat 11:53:57 AM 32.8367 -112.0333 103° East 468 539 33,000  Level Albuquerque Center
Sat 11:54:59 AM 32.8136 -111.8811 100° East 471 542 33,000  Level Albuquerque Center
Sat 11:56:00 AM 32.7903 -111.7283 100° East 472 543 33,000  Level Albuquerque Center
Sat 11:57:02 AM 32.7672 -111.5772 100° East 469 540 33,000  Level Albuquerque Center
Sat 11:58:03 AM 32.7436 -111.4269 101° East 465 535 33,000  Level Albuquerque Center
Sat 11:59:05 AM 32.7203 -111.2756 100° East 467 537 33,000  Level Albuquerque Center
Sat 12:00:06 PM 32.6958 -111.1264 101° East 466 536 33,000  Level Albuquerque Center
Sat 12:01:08 PM 32.6661 -110.9447 101° East 469 540 33,000  Level Albuquerque Center
Sat 12:02:09 PM 32.6406 -110.7919 101° East 472 543 33,000  Level Albuquerque Center
Sat 12:03:11 PM 32.6156 -110.6389 101° East 474 545 33,000  Level Albuquerque Center
Sat 12:04:12 PM 32.5900 -110.4858 101° East 475 547 33,000  Level Albuquerque Center
Sat 12:05:14 PM 32.5644 -110.3281 101° East 474 545 33,000  Level Albuquerque Center
Sat 12:06:16 PM 32.5394 -110.1781 101° East 472 543 33,000  Level Albuquerque Center
Sat 12:07:17 PM 32.5125 -110.0275 102° East 472 543 33,000 146 Level Albuquerque Center
Sat 12:08:19 PM 32.4881 -109.8750 101° East 474 545 33,300 634 Climbing Albuquerque Center
Sat 12:09:20 PM 32.4556 -109.6922 102° East 476 548 34,300 878 Climbing Albuquerque Center
Sat 12:10:22 PM 32.4267 -109.5350 102° East 487 560 35,100 829 Climbing Albuquerque Center
Sat 12:11:23 PM 32.4000 -109.3800 101° East 489 563 36,000 927 Climbing Albuquerque Center
Sat 12:12:25 PM 32.3719 -109.2244 102° East 490 564 37,000 488 Climbing Albuquerque Center
Sat 12:13:26 PM 32.3453 -109.0689 101° East 490 564 37,000 49 Level Albuquerque Center
Sat 12:14:28 PM 32.3111 -108.8828 102° East 491 565 37,100 195 Climbing Albuquerque Center
Sat 12:15:29 PM 32.2831 -108.7261 102° East 493 567 37,400 537 Climbing Albuquerque Center
Sat 12:16:31 PM 32.2542 -108.5672 102° East 499 574 38,200 532 Climbing Albuquerque Center
Sat 12:17:33 PM 32.2269 -108.4169 102° East 498 573 38,500 390 Climbing Albuquerque Center
Sat 12:18:34 PM 32.1911 -108.2236 102° East 503 579 39,000 244 Climbing Albuquerque Center
Sat 12:19:36 PM 32.1614 -108.0631 102° East 503 579 39,000  Level Albuquerque Center
Sat 12:20:38 PM 32.1306 -107.9036 103° East 503 579 39,000  Level Albuquerque Center
Sat 12:21:39 PM 32.1017 -107.7428 102° East 505 581 39,000  Level Albuquerque Center
Sat 12:22:41 PM 32.0711 -107.5825 103° East 506 582 39,000  Level Albuquerque Center
Sat 12:23:43 PM 32.0403 -107.4214 103° East 508 585 39,000  Level Albuquerque Center
Sat 12:24:44 PM 32.0042 -107.2289 102° East 508 585 39,000  Level Albuquerque Center
Sat 12:25:46 PM 31.9736 -107.0686 103° East 508 585 39,000  Level Albuquerque Center
Sat 12:26:48 PM 31.9419 -106.9094 103° East 507 583 39,000  Level Albuquerque Center
Sat 12:27:50 PM 31.9108 -106.7506 103° East 504 580 39,000  Level Albuquerque Center
Sat 12:28:51 PM 31.8786 -106.5922 103° East 502 578 39,000 -49 Level Albuquerque Center
Sat 12:29:53 PM 31.8464 -106.4253 103° East 510 587 38,900  Descending Albuquerque Center
Sat 12:30:55 PM 31.8139 -106.2639 103° East 509 586 39,000 48 Climbing Albuquerque Center
Sat 12:31:57 PM 31.7642 -106.0750 107° East 506 582 39,000 -49 Level Albuquerque Center
Sat 12:32:58 PM 31.7244 -105.9164 106° East 506 582 38,900 -49 Descending Albuquerque Center
Sat 12:34:00 PM 31.6850 -105.7597 106° East 502 578 38,900 48 Level Albuquerque Center
Sat 12:35:02 PM 31.6447 -105.6003 106° East 507 583 39,000 49 Climbing Albuquerque Center
Sat 12:36:03 PM 31.6053 -105.4400 106° East 510 587 39,000  Level Albuquerque Center
Sat 12:37:05 PM 31.5644 -105.2808 107° East 509 586 39,000  Level Albuquerque Center
Sat 12:38:07 PM 31.5244 -105.1214 106° East 507 583 39,000  Level Albuquerque Center
Sat 12:39:09 PM 31.4836 -104.9611 107° East 509 586 39,000  Level Albuquerque Center
Sat 12:40:10 PM 31.4347 -104.7703 107° East 508 585 39,000  Level Albuquerque Center
Sat 12:41:12 PM 31.3925 -104.6117 107° East 508 585 39,000  Level Albuquerque Center
Sat 12:42:14 PM 31.3517 -104.4531 107° East 508 585 39,000  Level Albuquerque Center
Sat 12:43:16 PM 31.3117 -104.2958 107° East 504 580 39,000  Level Albuquerque Center
Sat 12:44:17 PM 31.2697 -104.1381 107° East 506 582 39,000  Level Albuquerque Center
Sat 12:45:19 PM 31.2269 -103.9794 107° East 510 587 39,000  Level Albuquerque Center
Sat 12:46:21 PM 31.1844 -103.8222 107° East 509 586 39,000  Level Albuquerque Center
Sat 12:47:23 PM 31.1356 -103.6483 108° East 510 587 39,000  Level Albuquerque Center
Sat 12:48:24 PM 31.0919 -103.4917 108° East 509 586 39,000  Level Albuquerque Center
Sat 12:49:26 PM 31.0486 -103.3356 108° East 508 585 39,000  Level Albuquerque Center
Sat 12:50:28 PM 31.0042 -103.1778 108° East 512 589 39,000  Level Albuquerque Center
Sat 12:51:30 PM 30.9553 -102.9933 107° East 504 580 39,000  Level Albuquerque Center
Sat 12:52:31 PM 30.9125 -102.8367 108° East 508 585 39,000  Level Albuquerque Center
Sat 12:53:33 PM 30.8708 -102.6789 107° East 513 590 39,000  Level Albuquerque Center
Sat 12:54:35 PM 30.8272 -102.5219 108° East 514 592 39,000  Level Albuquerque Center
Sat 12:55:37 PM 30.7850 -102.3656 107° East 514 592 39,000  Level Albuquerque Center
Sat 12:56:38 PM 30.7331 -102.1778 108° East 513 590 39,000  Level Albuquerque Center
Sat 12:57:40 PM 30.6900 -102.0200 108° East 514 592 39,000  Level Albuquerque Center
Sat 12:58:42 PM 30.6456 -101.8631 108° East 516 594 39,000  Level Albuquerque Center
Sat 01:00:15 PM 30.5753 -101.6108 108° East 513 590 39,000  Level Houston Center
Sat 01:01:17 PM 30.5383 -101.4783 108° East 510 587 39,000 -48 Level Houston Center
Sat 01:02:19 PM 30.4867 -101.2919 108° East 507 583 38,900  Descending Houston Center
Sat 01:03:20 PM 30.4408 -101.1375 109° East 507 583 39,000  Climbing Houston Center
Sat 01:04:22 PM 30.3969 -100.9817 108° East 509 586 38,900  Descending Houston Center
Sat 01:05:24 PM 30.3519 -100.8261 108° East 508 585 39,000 48 Climbing Houston Center
Sat 01:06:26 PM 30.3072 -100.6711 108° East 509 586 39,000  Level Houston Center
Sat 01:07:28 PM 30.2628 -100.5153 108° East 507 583 39,000  Level Houston Center
Sat 01:08:30 PM 30.2178 -100.3608 109° East 504 580 39,000 -49 Level Houston Center
Sat 01:09:31 PM 30.1739 -100.2036 108° East 503 579 38,900 -49 Descending Houston Center
Sat 01:10:33 PM 30.1269 -100.0464 109° East 506 582 38,900 48 Level Houston Center
Sat 01:11:35 PM 30.0717 -99.8633 109° East 501 577 39,000 48 Climbing Houston Center
Sat 01:12:37 PM 30.0250 -99.7097 109° East 506 582 39,000  Level Houston Center
Sat 01:13:38 PM 29.9783 -99.5550 109° East 509 586 39,000  Level Houston Center
Sat 01:14:40 PM 29.9319 -99.4014 109° East 508 585 39,000  Level Houston Center
Sat 01:15:42 PM 29.8869 -99.2478 109° East 509 586 39,000  Level Houston Center
Sat 01:16:44 PM 29.8400 -99.0942 109° East 509 586 39,000  Level Houston Center
Sat 01:17:45 PM 29.7875 -98.9228 109° East 508 585 39,000 -341 Level Houston Center
Sat 01:18:47 PM 29.7356 -98.7569 110° East 510 587 38,300 -1,113 Descending Houston Center
Sat 01:19:49 PM 29.6886 -98.6061 110° East 502 578 36,700 -1,548 Descending Houston Center
Sat 01:20:51 PM 29.6561 -98.4419 103° East 497 572 35,100 -829 Descending Houston Center
Sat 01:21:52 PM 29.6475 -98.2783 93° East 507 583 35,000 -49 Descending Houston Center
Sat 01:22:54 PM 29.6497 -98.1175 89° East 505 581 35,000 -774 Level Houston Center
Sat 01:23:56 PM 29.6508 -97.9569 90° East 503 579 33,400 -1,839 Descending Houston Center
Sat 01:24:58 PM 29.6536 -97.7906 89° East 505 581 31,200 -2,049 Descending Houston Center
Sat 01:25:59 PM 29.6558 -97.6328 89° East 500 575 29,200 -1,854 Descending Houston Center
Sat 01:27:01 PM 29.6575 -97.4800 89° East 484 557 27,400 -1,790 Descending Houston Center
Sat 01:28:03 PM 29.6581 -97.3336 90° East 461 531 25,500 -1,790 Descending Houston Center
Sat 01:29:05 PM 29.6589 -97.1908 90° East 446 513 23,700 -1,805 Descending Houston Center
Sat 01:30:06 PM 29.6608 -97.0525 89° East 434 499 21,800 -1,854 Descending Houston Center
Sat 01:31:08 PM 29.6483 -96.9183 96° East 419 482 19,900 -1,984 Descending Houston Center
Sat 01:32:10 PM 29.6278 -96.7644 99° East 404 465 17,700 -1,790 Descending Houston Center
Sat 01:33:12 PM 29.6225 -96.6419 93° East 385 443 16,200 -1,597 Descending Houston Center
Sat 01:34:14 PM 29.6194 -96.5217 92° East 377 434 14,400 -1,780 Descending Houston Center
Sat 01:34:43 PM 29.6164 -96.4589 93° East 372 428 13,500 -1,770 Descending Houston Center
Sat 01:35:15 PM 29.6178 -96.4039 88° East 371 427 12,600 -1,672 Descending Houston Center
Sat 01:35:44 PM 29.6033 -96.3522 108° East 359 413 11,800 -1,645 Descending Houston Center
Sat 01:36:17 PM 29.5894 -96.2969 106° East 353 406 10,900 -1,672 Descending Houston Center
Sat 01:36:45 PM 29.5686 -96.2408 113° Southeast 342 394 10,100 -871 Descending Houston Center
Sat 01:37:19 PM 29.5544 -96.1967 110° East 341 392 10,000 -82 Descending Houston Center
Sat 01:37:58 PM 29.5669 -96.1233 79° East 343 395 10,000  Level Houston Center
Sat 01:38:21 PM 29.5792 -96.0969 62° Northeast 342 394 10,000 -857 Level Houston Center
Sat 01:38:47 PM 29.6067 -96.0469 58° Northeast 312 359 9,300 -968 Descending Houston Center
Sat 01:39:23 PM 29.6247 -96.0119 59° Northeast 320 368 9,000 -327 Descending Houston Center
Sat 01:39:42 PM 29.6458 -95.9681 61° Northeast 313 360 9,000  Level Houston Center
Sat 01:40:25 PM 29.6750 -95.9081 61° Northeast 313 360 9,000 -904 Level Houston Center
Sat 01:40:55 PM 29.6997 -95.8633 58° Northeast 313 360 7,900 -1,869 Descending Houston Center
Sat 01:41:26 PM 29.7186 -95.8239 61° Northeast 310 357 7,100 -1,102 Descending Houston Center
Sat 01:41:44 PM 29.7336 -95.7944 60° Northeast 308 354 7,000  Descending Houston Center
Sat 01:42:28 PM 29.7844 -95.7789 15° North 305 351 7,100  Climbing Houston Center
Sat 01:42:51 PM 29.8161 -95.7778 North 242 278 7,000  Descending Houston Center
Sat 01:43:30 PM 29.8514 -95.7781 360° North 250 288 7,100  Climbing Houston Center
Sat 01:43:52 PM 29.8794 -95.7822 353° North 224 258 7,000 -97 Descending Houston Center
Sat 01:44:32 PM 29.9136 -95.7822 360° North 227 261 7,000 -295 Level Houston Center
Sat 01:44:53 PM 29.9425 -95.7847 356° North 223 257 6,700 -871 Descending Houston Center
Sat 01:45:34 PM 29.9683 -95.7606 39° Northeast 238 274 6,100 -689 Descending Houston Center
Sat 01:45:54 PM 29.9817 -95.7294 64° Northeast 232 267 6,000 -492 Descending Houston Center
Sat 01:46:35 PM 29.9922 -95.6931 71° East 227 261 5,600 -885 Descending Houston Center
Sat 01:46:55 PM 29.9919 -95.6558 90° East 223 257 5,100 -1,258 Descending Houston Center
Sat 01:47:37 PM 29.9925 -95.6067 89° East 226 260 4,300 -1,279 Descending Houston Center
Sat 01:47:56 PM 29.9919 -95.5836 92° East 223 257 3,800 -1,579 Descending Houston Center

Login

Don't have an account? Register now (free) for customized features, flight alerts, and more!